createdAt,value
2022-12-28T00:01:41.475Z,90295.28
2022-12-28T00:04:08.455Z,90305.09
2022-12-28T00:06:35.348Z,90321.44
2022-12-28T00:09:02.568Z,90327.25
2022-12-28T00:11:31.241Z,90322.22
2022-12-28T00:14:00.315Z,90321.25
2022-12-28T00:16:33.486Z,90315.13
2022-12-28T00:19:02.787Z,90325.50
2022-12-28T00:21:30.890Z,90327.75
2022-12-28T00:23:59.884Z,90323.50
2022-12-28T00:26:29.526Z,90320.50
2022-12-28T00:29:03.626Z,90320.44
2022-12-28T00:31:31.977Z,90306.31
2022-12-28T00:33:58.964Z,90310.28
2022-12-28T00:37:09.949Z,90307.81
2022-12-28T00:39:12.849Z,90299.19
2022-12-28T00:41:39.767Z,90298.81
2022-12-28T00:44:06.756Z,90293.78
2022-12-28T00:46:33.697Z,90285.97
2022-12-28T00:49:00.710Z,90285.56
2022-12-28T00:51:27.812Z,90293.16
2022-12-28T00:53:54.866Z,90280.94
2022-12-28T00:56:24.444Z,90276.06
2022-12-28T00:58:55.751Z,90281.22
2022-12-28T01:01:24.288Z,90281.22
2022-12-28T01:03:51.951Z,90285.41
2022-12-28T01:06:20.193Z,90284.41
2022-12-28T01:08:47.550Z,90286.41
2022-12-28T01:11:24.953Z,90281.31
2022-12-28T01:13:53.515Z,90288.28
2022-12-28T01:16:23.741Z,90294.81
2022-12-28T01:18:56.236Z,90285.78
2022-12-28T01:21:25.888Z,90286.34
2022-12-28T01:23:57.725Z,90305.16
2022-12-28T01:26:24.848Z,90308.28
2022-12-28T01:28:52.132Z,90303.56
2022-12-28T01:31:21.178Z,90297.69
2022-12-28T01:33:48.483Z,90304.91
2022-12-28T01:36:18.642Z,90297.88
2022-12-28T01:38:46.913Z,90302.56
2022-12-28T01:41:18.955Z,90304.47
2022-12-28T01:44:08.857Z,90299.75
2022-12-28T01:46:50.376Z,90299.88
2022-12-28T01:49:26.771Z,90302.88
2022-12-28T01:52:08.525Z,90303.31
2022-12-28T01:55:09.247Z,90297.94
2022-12-28T01:57:53.798Z,90296.44
2022-12-28T02:00:20.926Z,90299.88
2022-12-28T02:02:56.960Z,90295.88
2022-12-28T02:05:29.777Z,90294.38
2022-12-28T02:08:35.559Z,90281.88
2022-12-28T02:11:02.744Z,90275.16
2022-12-28T02:13:29.973Z,90278.81
2022-12-28T02:15:58.401Z,90286.19
2022-12-28T02:18:26.000Z,90305.47
2022-12-28T02:21:16.560Z,90307.03
2022-12-28T02:23:46.345Z,90300.75
2022-12-28T02:26:46.342Z,90298.28
2022-12-28T02:29:27.187Z,90298.66
2022-12-28T02:31:54.086Z,90296.63
2022-12-28T02:34:47.929Z,90305.28
2022-12-28T02:37:25.017Z,90307.50
2022-12-28T02:40:10.110Z,90306.91
2022-12-28T02:42:38.347Z,90301.31
2022-12-28T02:45:06.182Z,90304.66
2022-12-28T02:47:33.016Z,90310.63
2022-12-28T02:50:03.931Z,90306.81
2022-12-28T02:53:07.900Z,90310.34
2022-12-28T02:55:53.336Z,90312.28
2022-12-28T02:58:41.469Z,90325.34
2022-12-28T03:01:52.312Z,90323.78
2022-12-28T03:04:30.757Z,90331.06
2022-12-28T03:07:13.027Z,90320.84
2022-12-28T03:10:05.352Z,90311.84
2022-12-28T03:13:07.657Z,90307.34
2022-12-28T03:15:37.369Z,90310.53
2022-12-28T03:18:17.202Z,90323.31
2022-12-28T03:20:46.018Z,90312.78
2022-12-28T03:23:17.062Z,90320.19
2022-12-28T03:25:47.158Z,90332.66
2022-12-28T03:28:18.072Z,90341.00
2022-12-28T03:30:48.127Z,90339.53
2022-12-28T03:33:15.700Z,90335.25
2022-12-28T03:36:00.917Z,90339.00
2022-12-28T03:38:48.864Z,90345.09
2022-12-28T03:41:25.004Z,90342.41
2022-12-28T03:43:57.500Z,90352.09
2022-12-28T03:46:47.645Z,90360.91
2022-12-28T03:49:15.039Z,90353.72
2022-12-28T03:51:43.249Z,90350.97
2022-12-28T03:54:12.972Z,90353.78
2022-12-28T03:56:49.893Z,90351.59
2022-12-28T03:59:17.707Z,90346.53
2022-12-28T04:01:45.149Z,90334.06
2022-12-28T04:04:12.388Z,90335.38
2022-12-28T04:06:39.691Z,90329.78
2022-12-28T04:09:07.984Z,90335.28
2022-12-28T04:11:34.875Z,90330.13
2022-12-28T04:14:10.319Z,90339.47
2022-12-28T04:16:38.236Z,90341.81
2022-12-28T04:19:05.209Z,90352.09
2022-12-28T04:21:32.076Z,90361.69
2022-12-28T04:23:59.014Z,90365.31
2022-12-28T04:26:26.130Z,90360.97
2022-12-28T04:28:53.145Z,90368.31
2022-12-28T04:31:20.135Z,90368.44
2022-12-28T04:33:47.129Z,90369.03
2022-12-28T04:36:16.376Z,90369.91
2022-12-28T04:38:43.366Z,90361.78
2022-12-28T04:41:11.823Z,90358.59
2022-12-28T04:43:39.518Z,90349.22
2022-12-28T04:46:11.366Z,90365.22
2022-12-28T04:48:38.611Z,90373.84
2022-12-28T04:51:10.989Z,90371.50
2022-12-28T04:53:39.279Z,90363.22
2022-12-28T04:56:08.152Z,90372.97
2022-12-28T04:58:36.224Z,90377.72
2022-12-28T05:01:09.517Z,90378.38
2022-12-28T05:03:37.808Z,90379.84
2022-12-28T05:06:12.021Z,90382.22
2022-12-28T05:08:39.714Z,90385.34
2022-12-28T05:11:08.959Z,90375.88
2022-12-28T05:13:36.033Z,90386.00
2022-12-28T05:16:04.631Z,90391.25
2022-12-28T05:18:31.699Z,90405.81
2022-12-28T05:21:00.923Z,90409.22
2022-12-28T05:23:29.766Z,90408.78
2022-12-28T05:25:57.398Z,90412.00
2022-12-28T05:28:25.559Z,90420.31
2022-12-28T05:30:53.534Z,90408.63
2022-12-28T05:33:20.401Z,90418.25
2022-12-28T05:35:47.303Z,90421.34
2022-12-28T05:38:14.122Z,90418.53
2022-12-28T05:40:41.159Z,90418.78
2022-12-28T05:43:08.233Z,90431.03
2022-12-28T05:45:35.667Z,90429.81
2022-12-28T05:48:02.601Z,90424.88
2022-12-28T05:50:29.566Z,90428.16
2022-12-28T05:52:56.570Z,90425.66
2022-12-28T05:55:23.358Z,90432.78
2022-12-28T05:57:50.208Z,90431.91
2022-12-28T06:00:17.283Z,90434.81
2022-12-28T06:02:44.322Z,90425.72
2022-12-28T06:05:11.202Z,90433.19
2022-12-28T06:07:38.263Z,90433.06
2022-12-28T06:10:05.576Z,90432.22
2022-12-28T06:12:32.469Z,90446.16
2022-12-28T06:14:59.546Z,90447.66
2022-12-28T06:17:26.364Z,90438.50
2022-12-28T06:19:53.313Z,90445.91
2022-12-28T06:22:20.195Z,90441.13
2022-12-28T06:24:47.251Z,90450.69
2022-12-28T06:27:14.041Z,90452.16
2022-12-28T06:29:41.092Z,90457.84
2022-12-28T06:32:08.089Z,90458.03
2022-12-28T06:34:35.020Z,90464.31
2022-12-28T06:37:01.923Z,90462.91
2022-12-28T06:39:28.951Z,90457.59
2022-12-28T06:41:55.806Z,90467.75
2022-12-28T06:44:22.669Z,90470.16
2022-12-28T06:46:49.573Z,90477.09
2022-12-28T06:49:16.506Z,90467.06
2022-12-28T06:51:43.443Z,90470.84
2022-12-28T06:54:11.135Z,90470.88
2022-12-28T06:56:38.576Z,90457.00
2022-12-28T06:59:06.183Z,90462.00
2022-12-28T07:01:36.128Z,90468.97
2022-12-28T07:04:04.932Z,90474.16
2022-12-28T07:06:38.139Z,90481.63
2022-12-28T07:09:08.605Z,90474.00
2022-12-28T07:11:36.116Z,90485.09
2022-12-28T07:14:03.376Z,90476.03
2022-12-28T07:18:58.219Z,90485.09
2022-12-28T07:21:43.291Z,90491.44
2022-12-28T07:24:10.251Z,90485.19
2022-12-28T07:26:38.316Z,90489.78
2022-12-28T07:29:07.241Z,90492.31
2022-12-28T07:31:41.956Z,90486.94
2022-12-28T07:34:11.948Z,90492.09
2022-12-28T07:36:38.891Z,90494.56
2022-12-28T07:39:05.831Z,90493.78
2022-12-28T07:41:33.919Z,90494.00
2022-12-28T07:44:01.465Z,90496.66
2022-12-28T07:46:33.873Z,90492.28
2022-12-28T07:49:01.024Z,90487.50
2022-12-28T07:51:32.891Z,90491.59
2022-12-28T07:54:00.809Z,90484.97
2022-12-28T07:56:29.789Z,90482.78
2022-12-28T07:58:59.230Z,90489.50
2022-12-28T08:01:29.691Z,90493.72
2022-12-28T08:03:59.027Z,90496.97
2022-12-28T08:06:27.326Z,90488.63
2022-12-28T08:08:58.212Z,90492.16
2022-12-28T08:11:28.169Z,90495.19
2022-12-28T08:13:56.155Z,90503.25
2022-12-28T08:16:25.052Z,90497.63
2022-12-28T08:18:52.026Z,90498.59
2022-12-28T08:21:30.436Z,90494.41
2022-12-28T08:23:58.077Z,90501.09
2022-12-28T08:26:30.815Z,90496.47
2022-12-28T08:29:00.035Z,90492.66
2022-12-28T08:31:35.812Z,90483.94
2022-12-28T08:34:04.868Z,90486.78
2022-12-28T08:36:32.625Z,90486.44
2022-12-28T08:39:00.613Z,90487.72
2022-12-28T08:41:29.093Z,90489.06
2022-12-28T08:43:56.760Z,90480.41
2022-12-28T08:46:29.649Z,90480.19
2022-12-28T08:48:58.945Z,90475.53
2022-12-28T08:51:28.374Z,90474.88
2022-12-28T08:53:55.351Z,90464.59
2022-12-28T08:56:27.550Z,90456.38
2022-12-28T08:58:55.638Z,90458.38
2022-12-28T09:01:23.449Z,90454.44
2022-12-28T09:03:53.365Z,90452.06
2022-12-28T09:06:26.555Z,90456.22
2022-12-28T09:09:10.808Z,90448.06
2022-12-28T09:11:39.169Z,90440.31
2022-12-28T09:14:09.383Z,90440.78
2022-12-28T09:16:37.689Z,90440.00
2022-12-28T09:19:06.933Z,90437.03
2022-12-28T09:21:36.710Z,90432.50
2022-12-28T09:24:04.197Z,90436.03
2022-12-28T09:26:34.389Z,90437.25
2022-12-28T09:29:03.944Z,90435.03
2022-12-28T09:31:33.390Z,90419.53
2022-12-28T09:36:47.486Z,90422.00
2022-12-28T09:39:19.768Z,90425.59
2022-12-28T09:42:03.322Z,90416.06
2022-12-28T09:44:34.823Z,90410.03
2022-12-28T09:47:01.629Z,90412.19
2022-12-28T09:49:38.666Z,90402.94
2022-12-28T09:52:14.646Z,90401.88
2022-12-28T09:54:42.386Z,90402.63
2022-12-28T09:57:18.309Z,90394.53
2022-12-28T09:59:48.073Z,90402.19
2022-12-28T10:02:36.240Z,90390.69
2022-12-28T10:05:03.259Z,90392.44
2022-12-28T10:07:30.176Z,90381.06
2022-12-28T10:09:57.081Z,90385.34
2022-12-28T10:12:23.991Z,90387.88
2022-12-28T10:14:53.599Z,90388.75
2022-12-28T10:17:27.225Z,90392.84
2022-12-28T10:19:58.199Z,90388.41
2022-12-28T10:22:38.324Z,90395.28
2022-12-28T10:25:17.068Z,90389.25
2022-12-28T10:27:44.497Z,90395.66
2022-12-28T10:30:20.435Z,90397.63
2022-12-28T10:33:06.325Z,90403.44
2022-12-28T10:35:50.205Z,90395.22
2022-12-28T10:38:23.733Z,90404.59
2022-12-28T10:41:14.931Z,90397.34
2022-12-28T10:44:21.451Z,90403.19
2022-12-28T10:46:52.351Z,90395.81
2022-12-28T10:49:20.937Z,90391.50
2022-12-28T10:52:15.459Z,90391.00
2022-12-28T10:54:43.170Z,90389.59
2022-12-28T10:57:20.173Z,90389.16
2022-12-28T10:59:47.630Z,90394.25
2022-12-28T11:02:24.838Z,90395.63
2022-12-28T11:05:01.218Z,90401.78
2022-12-28T11:07:36.942Z,90389.03
2022-12-28T11:10:21.989Z,90388.94
2022-12-28T11:12:49.179Z,90386.31
2022-12-28T11:15:22.173Z,90396.94
2022-12-28T11:18:01.386Z,90392.28
2022-12-28T11:20:35.135Z,90389.50
2022-12-28T11:23:06.057Z,90384.03
2022-12-28T11:25:34.750Z,90389.75
2022-12-28T11:28:08.816Z,90389.00
2022-12-28T11:30:35.781Z,90389.09
2022-12-28T11:33:04.250Z,90388.69
2022-12-28T11:35:38.993Z,90387.53
2022-12-28T11:38:07.561Z,90387.72
2022-12-28T11:40:43.752Z,90380.97
2022-12-28T11:43:31.625Z,90385.47
2022-12-28T11:46:05.739Z,90381.41
2022-12-28T11:48:44.391Z,90382.16
2022-12-28T11:51:18.603Z,90378.88
2022-12-28T11:53:45.365Z,90376.56
2022-12-28T11:56:14.149Z,90379.28
2022-12-28T11:58:41.042Z,90378.53
2022-12-28T12:01:12.120Z,90374.66
2022-12-28T12:03:57.424Z,90382.25
2022-12-28T12:06:42.588Z,90375.59
2022-12-28T12:09:21.559Z,90377.25
2022-12-28T12:11:49.424Z,90382.22
2022-12-28T12:14:22.444Z,90370.50
2022-12-28T12:17:14.912Z,90372.06
2022-12-28T12:19:48.467Z,90368.28
2022-12-28T12:22:30.005Z,90378.72
2022-12-28T12:25:02.192Z,90380.97
2022-12-28T12:27:41.937Z,90374.53
2022-12-28T12:30:17.860Z,90374.09
2022-12-28T12:32:46.617Z,90367.66
2022-12-28T12:35:38.719Z,90378.72
2022-12-28T12:38:11.417Z,90386.34
2022-12-28T12:40:44.088Z,90385.59
2022-12-28T12:43:32.825Z,90381.06
2022-12-28T12:46:27.014Z,90381.81
2022-12-28T12:49:15.022Z,90385.84
2022-12-28T12:52:04.237Z,90382.34
2022-12-28T12:54:47.493Z,90380.38
2022-12-28T12:57:21.393Z,90384.50
2022-12-28T12:59:48.206Z,90382.16
2022-12-28T13:02:40.488Z,90391.25
2022-12-28T13:05:14.801Z,90389.03
2022-12-28T13:07:41.754Z,90396.03
2022-12-28T13:10:16.987Z,90392.16
2022-12-28T13:12:44.152Z,90391.72
2022-12-28T13:15:18.799Z,90397.00
2022-12-28T13:18:42.825Z,90399.34
2022-12-28T13:20:54.596Z,90400.09
2022-12-28T13:23:23.492Z,90395.41
2022-12-28T13:25:59.251Z,90398.09
2022-12-28T13:28:30.771Z,90398.31
2022-12-28T13:31:21.913Z,90398.09
2022-12-28T13:33:56.698Z,90394.72
2022-12-28T13:36:23.543Z,90401.06
2022-12-28T13:39:04.591Z,90389.22
2022-12-28T13:41:34.202Z,90398.59
2022-12-28T13:44:13.408Z,90401.47
2022-12-28T13:46:43.899Z,90411.06
2022-12-28T13:49:12.696Z,90405.38
2022-12-28T13:51:41.362Z,90397.59
2022-12-28T13:54:09.730Z,90406.22
2022-12-28T13:56:39.731Z,90402.53
2022-12-28T13:59:14.396Z,90403.63
2022-12-28T14:01:44.735Z,90404.25
2022-12-28T14:04:51.361Z,90409.13
2022-12-28T14:07:02.293Z,90411.75
2022-12-28T14:09:29.979Z,90406.28
2022-12-28T14:11:57.082Z,90403.63
2022-12-28T14:14:24.589Z,90408.19
2022-12-28T14:16:51.712Z,90409.50
2022-12-28T14:19:19.025Z,90407.09
2022-12-28T14:21:46.034Z,90409.50
2022-12-28T14:24:15.578Z,90411.31
2022-12-28T14:26:55.502Z,90410.91
2022-12-28T14:29:31.366Z,90411.53
2022-12-28T14:32:00.226Z,90413.53
2022-12-28T14:34:30.226Z,90412.16
2022-12-28T14:36:58.837Z,90415.22
2022-12-28T14:39:25.664Z,90414.06
2022-12-28T14:41:53.724Z,90412.69
2022-12-28T14:44:27.925Z,90413.06
2022-12-28T14:46:55.462Z,90424.00
2022-12-28T14:49:28.548Z,90417.00
2022-12-28T14:52:18.253Z,90423.22
2022-12-28T14:54:50.035Z,90429.56
2022-12-28T14:57:20.027Z,90422.72
2022-12-28T14:59:55.369Z,90423.44
2022-12-28T15:02:34.852Z,90418.97
2022-12-28T15:05:02.694Z,90423.13
2022-12-28T15:07:31.726Z,90424.69
2022-12-28T15:09:58.689Z,90416.94
2022-12-28T15:12:25.613Z,90427.38
2022-12-28T15:14:52.471Z,90432.94
2022-12-28T15:17:19.447Z,90437.16
2022-12-28T15:19:46.378Z,90438.13
2022-12-28T15:22:14.847Z,90437.47
2022-12-28T15:24:41.860Z,90444.06
2022-12-28T15:27:08.889Z,90445.00
2022-12-28T15:32:24.497Z,90443.19
2022-12-28T15:34:51.357Z,90451.84
2022-12-28T15:37:18.391Z,90456.47
2022-12-28T15:39:45.256Z,90458.28
2022-12-28T15:42:12.271Z,90449.56
2022-12-28T15:44:39.163Z,90446.66
2022-12-28T15:47:06.143Z,90455.91
2022-12-28T15:49:33.105Z,90461.28
2022-12-28T15:52:00.068Z,90444.28
2022-12-28T15:54:27.041Z,90455.06
2022-12-28T15:56:55.975Z,90452.00
2022-12-28T15:59:22.799Z,90457.81
2022-12-28T16:01:49.943Z,90464.25
2022-12-28T16:04:16.992Z,90463.91
2022-12-28T16:06:45.208Z,90465.22
2022-12-28T16:09:13.751Z,90461.59
2022-12-28T16:11:41.940Z,90460.13
2022-12-28T16:14:15.224Z,90455.25
2022-12-28T16:16:43.378Z,90460.25
2022-12-28T16:19:16.242Z,90452.69
2022-12-28T16:21:43.502Z,90455.66
2022-12-28T16:24:11.089Z,90458.31
2022-12-28T16:26:38.090Z,90460.84
2022-12-28T16:29:04.966Z,90461.69
2022-12-28T16:31:38.010Z,90461.28
2022-12-28T16:34:14.776Z,90467.78
2022-12-28T16:36:42.565Z,90463.56
2022-12-28T16:39:15.687Z,90462.16
2022-12-28T16:41:42.844Z,90461.34
2022-12-28T16:44:21.518Z,90463.22
2022-12-28T16:46:49.228Z,90469.06
2022-12-28T16:49:17.286Z,90464.06
2022-12-28T16:51:46.000Z,90460.59
2022-12-28T16:54:18.170Z,90466.97
2022-12-28T16:56:47.178Z,90470.50
2022-12-28T16:59:18.742Z,90468.34
2022-12-28T17:01:46.404Z,90475.28
2022-12-28T17:04:13.667Z,90472.78
2022-12-28T17:06:41.360Z,90476.91
2022-12-28T17:09:08.830Z,90462.56
2022-12-28T17:11:35.832Z,90478.06
2022-12-28T17:14:04.916Z,90473.03
2022-12-28T17:16:32.613Z,90482.75
2022-12-28T17:19:00.646Z,90479.50
2022-12-28T17:21:30.127Z,90481.47
2022-12-28T17:23:57.581Z,90482.22
2022-12-28T17:26:24.857Z,90471.72
2022-12-28T17:28:51.880Z,90490.38
2022-12-28T17:31:21.551Z,90494.72
2022-12-28T17:33:51.808Z,90481.47
2022-12-28T17:36:52.796Z,90488.25
2022-12-28T17:39:19.632Z,90494.72
2022-12-28T17:41:46.669Z,90487.72
2022-12-28T17:44:13.621Z,90500.31
2022-12-28T17:46:40.609Z,90497.84
2022-12-28T17:49:11.066Z,90493.66
2022-12-28T17:51:38.339Z,90490.00
2022-12-28T17:54:05.358Z,90504.00
2022-12-28T17:56:32.197Z,90502.13
2022-12-28T17:58:59.799Z,90504.09
2022-12-28T18:01:27.524Z,90500.97
2022-12-28T18:03:55.375Z,90505.63
2022-12-28T18:06:22.366Z,90502.50
2022-12-28T18:08:49.900Z,90502.25
2022-12-28T18:11:17.080Z,90502.66
2022-12-28T18:13:46.056Z,90507.31
2022-12-28T18:16:15.726Z,90506.78
2022-12-28T18:18:43.524Z,90509.94
2022-12-28T18:21:21.132Z,90511.03
2022-12-28T18:23:50.590Z,90515.72
2022-12-28T18:26:22.674Z,90515.72
2022-12-28T18:28:50.330Z,90517.34
2022-12-28T18:31:17.350Z,90516.06
2022-12-28T18:33:44.459Z,90507.56
2022-12-28T18:36:17.005Z,90513.00
2022-12-28T18:38:45.543Z,90521.91
2022-12-28T18:41:14.664Z,90520.84
2022-12-28T18:43:41.717Z,90518.59
2022-12-28T18:46:10.080Z,90518.03
2022-12-28T18:48:38.833Z,90521.25
2022-12-28T18:51:06.271Z,90521.06
2022-12-28T18:53:33.540Z,90513.69
2022-12-28T18:56:03.572Z,90518.84
2022-12-28T18:58:38.753Z,90512.59
2022-12-28T19:01:40.029Z,90517.81
2022-12-28T19:04:04.158Z,90518.16
2022-12-28T19:06:31.268Z,90520.22
2022-12-28T19:09:01.757Z,90512.59
2022-12-28T19:11:29.875Z,90521.97
2022-12-28T19:13:57.531Z,90529.31
2022-12-28T19:16:30.910Z,90529.25
2022-12-28T19:18:59.533Z,90533.97
2022-12-28T19:21:35.541Z,90521.72
2022-12-28T19:24:19.322Z,90525.13
2022-12-28T19:26:50.171Z,90527.25
2022-12-28T19:29:38.386Z,90523.75
2022-12-28T19:32:05.643Z,90525.25
2022-12-28T19:34:32.819Z,90524.44
2022-12-28T19:36:59.762Z,90521.34
2022-12-28T19:39:26.597Z,90520.59
2022-12-28T19:41:53.580Z,90519.97
2022-12-28T19:44:20.558Z,90529.66
2022-12-28T19:46:48.468Z,90536.84
2022-12-28T19:49:15.811Z,90521.81
2022-12-28T19:51:42.867Z,90521.47
2022-12-28T19:54:11.687Z,90525.03
2022-12-28T19:56:38.994Z,90525.94
2022-12-28T19:59:07.193Z,90528.13
2022-12-28T20:01:36.491Z,90527.47
2022-12-28T20:04:10.390Z,90529.19
2022-12-28T20:06:40.322Z,90528.34
2022-12-28T20:09:07.339Z,90535.44
2022-12-28T20:11:34.305Z,90531.06
2022-12-28T20:14:03.183Z,90526.97
2022-12-28T20:16:32.672Z,90529.03
2022-12-28T20:19:13.141Z,90540.75
2022-12-28T20:21:40.630Z,90531.31
2022-12-28T20:24:08.716Z,90529.47
2022-12-28T20:26:35.715Z,90533.22
2022-12-28T20:29:03.702Z,90534.00
2022-12-28T20:31:30.798Z,90533.22
2022-12-28T20:33:58.322Z,90534.00
2022-12-28T20:36:28.465Z,90528.75
2022-12-28T20:38:57.041Z,90540.75
2022-12-28T20:41:29.921Z,90541.00
2022-12-28T20:43:56.872Z,90532.66
2022-12-28T20:46:23.952Z,90528.56
2022-12-28T20:48:51.045Z,90529.63
2022-12-28T20:51:18.037Z,90524.78
2022-12-28T20:53:45.034Z,90524.03
2022-12-28T20:56:12.211Z,90522.47
2022-12-28T20:58:39.862Z,90520.19
2022-12-28T21:01:09.462Z,90523.56
2022-12-28T21:03:37.171Z,90522.56
2022-12-28T21:06:05.102Z,90528.97
2022-12-28T21:08:32.801Z,90526.34
2022-12-28T21:11:00.102Z,90526.81
2022-12-28T21:13:27.894Z,90526.00
2022-12-28T21:15:55.590Z,90529.03
2022-12-28T21:18:23.052Z,90530.94
2022-12-28T21:20:52.607Z,90518.19
2022-12-28T21:23:19.463Z,90515.19
2022-12-28T21:25:46.496Z,90509.56
2022-12-28T21:28:13.369Z,90506.31
2022-12-28T21:30:40.513Z,90506.16
2022-12-28T21:33:10.400Z,90506.91
2022-12-28T21:35:37.378Z,90502.69
2022-12-28T21:38:05.382Z,90502.91
2022-12-28T21:40:32.292Z,90501.69
2022-12-28T21:42:59.226Z,90503.47
2022-12-28T21:45:26.077Z,90512.22
2022-12-28T21:47:53.114Z,90501.53
2022-12-28T21:50:19.947Z,90506.09
2022-12-28T21:52:46.877Z,90504.56
2022-12-28T21:55:13.854Z,90503.72
2022-12-28T21:57:40.750Z,90502.53
2022-12-28T22:00:08.485Z,90502.25
2022-12-28T22:02:35.591Z,90504.47
2022-12-28T22:05:04.110Z,90496.78
2022-12-28T22:07:32.057Z,90488.28
2022-12-28T22:09:59.044Z,90491.75
2022-12-28T22:12:27.198Z,90488.88
2022-12-28T22:14:54.120Z,90484.41
2022-12-28T22:17:21.001Z,90478.97
2022-12-28T22:19:47.905Z,90479.50
2022-12-28T22:22:14.744Z,90491.44
2022-12-28T22:24:41.726Z,90483.09
2022-12-28T22:27:08.647Z,90488.59
2022-12-28T22:29:35.476Z,90484.50
2022-12-28T22:32:02.490Z,90483.09
2022-12-28T22:34:31.060Z,90480.97
2022-12-28T22:36:57.874Z,90477.53
2022-12-28T22:39:24.799Z,90482.59
2022-12-28T22:41:51.851Z,90484.03
2022-12-28T22:44:18.814Z,90483.03
2022-12-28T22:46:45.663Z,90479.72
2022-12-28T22:49:12.648Z,90478.06
2022-12-28T22:51:39.587Z,90478.28
2022-12-28T22:54:06.887Z,90472.44
2022-12-28T22:56:33.859Z,90466.31
2022-12-28T22:59:04.702Z,90475.47
2022-12-28T23:01:32.217Z,90479.34
2022-12-28T23:03:59.150Z,90477.75
2022-12-28T23:06:26.161Z,90478.59
2022-12-28T23:08:53.200Z,90471.19
2022-12-28T23:11:20.324Z,90463.69
2022-12-28T23:13:47.243Z,90468.03
2022-12-28T23:16:14.114Z,90475.75
2022-12-28T23:18:41.109Z,90471.50
2022-12-28T23:21:23.585Z,90475.81
2022-12-28T23:23:50.464Z,90469.28
2022-12-28T23:26:17.324Z,90474.78
2022-12-28T23:28:44.214Z,90482.09
2022-12-28T23:31:11.005Z,90473.69
2022-12-28T23:33:37.945Z,90477.50
2022-12-28T23:36:05.205Z,90472.09
2022-12-28T23:38:33.334Z,90474.81
2022-12-28T23:41:04.860Z,90477.16
2022-12-28T23:43:31.776Z,90476.41
2022-12-28T23:46:02.603Z,90481.00
2022-12-28T23:48:29.542Z,90476.81
2022-12-28T23:50:56.473Z,90490.84
2022-12-28T23:53:23.367Z,90492.22
2022-12-28T23:55:50.350Z,90495.59
2022-12-28T23:58:17.184Z,90498.81
